Union Lake, MI (48387)

12:40 AM EDT on August 30, 2015 (GMT -0400)
West of Enniscrone | | Change Station
CLOSE
Current Station
Personal Weather Station
Location: Commerce Charter Township, MI
Elevation: 961 ft
Nearby Weather Stations

Elev 961 ft 42.61 °N, 83.49 °W | Updated 30 seconds ago

Rain
Rain
65.3 °F
Feels Like 65.3 °F
N
0.0
Wind Variable Wind from ESE
Gusts 0.0 mph

Today
High -- | Low -- °F
--% Chance of Precip.
Yesterday
High -- | Low -- °F
Precip. -- in
6:56 AM 8:11 PM
Full, 100% visible
Pressure 30.06 in
Visibility 7.0 miles
Clouds Few 2500 ft
Mostly Cloudy 4500 ft
Overcast 13000 ft
Dew Point 65 °F
Humidity 99%
Rainfall 0.00 in
Snow Depth Not available.
UV 0.0 out of 12
Pollen 8.60 out of 12
Air Quality Not available.
Flu Activity Not available.
METAR KPTK 300353Z 09004KT 7SM -RA FEW025 BKN045 OVC130 18/17 A3007 RMK AO2 SLP180 LAST AUGMENTED OBS NEXT 10Z P0001 T01830172
Pressure 30.06 in
Visibility 7.0 miles
Clouds Few 2500 ft
Mostly Cloudy 4500 ft
Overcast 13000 ft
Dew Point 65 °F
Humidity 99%
Rainfall 0.00 in
Snow Depth Not available.
UV 0.0 out of 12
Pollen 8.60 out of 12
Air Quality Not available.
Flu Activity Not available.
METAR KPTK 300353Z 09004KT 7SM -RA FEW025 BKN045 OVC130 18/17 A3007 RMK AO2 SLP180 LAST AUGMENTED OBS NEXT 10Z P0001 T01830172

10-Day Weather Forecast

×

Almanac

Astronomy

Aug. 30, 2015 Rise Set
Actual Time
Civil Twilight
Nautical Twilight
Astronomical Twilight
Moon
Length of Visible Light
Length of Day
Tomorrow will be .
, % of the Moon is Illuminated

Today's Extremes

State Highs State Lows

Community

WunderPhotos

Upload Photos

1,850,887 photos uploaded!

WunderBlogs® & News

Nearby

Air Quality

  Air Quality AQ Index Pollutant
Not available.

Snow Depth

Station Depth Elevation

Earthquake Activity

City Distance Mag. Time & Date
Minimum magnitude displayed is 2.5.

Coastal Water Temperatures

Place Temperature

Stations

Nearby Weather Stations

Station Location Temp. Windchill Dew Point Humidity Wind Precip. Elev Updated Type